createdAt,value
2023-02-02T00:01:24.402Z,8.84
2023-02-02T00:03:51.589Z,8.76
2023-02-02T00:06:20.240Z,8.83
2023-02-02T00:08:47.477Z,8.82
2023-02-02T00:11:17.694Z,8.76
2023-02-02T00:13:44.800Z,8.72
2023-02-02T00:16:26.592Z,8.73
2023-02-02T00:18:54.492Z,8.72
2023-02-02T00:21:21.075Z,8.71
2023-02-02T00:23:47.686Z,8.72
2023-02-02T00:26:14.284Z,8.72
2023-02-02T00:28:43.107Z,8.67
2023-02-02T00:31:10.197Z,8.74
2023-02-02T00:33:36.855Z,8.75
2023-02-02T00:36:04.139Z,8.76
2023-02-02T00:38:31.801Z,8.70
2023-02-02T00:40:58.481Z,8.80
2023-02-02T00:43:25.196Z,8.77
2023-02-02T00:45:51.969Z,8.80
2023-02-02T00:48:18.623Z,8.81
2023-02-02T00:50:45.728Z,8.80
2023-02-02T00:53:12.267Z,8.70
2023-02-02T00:55:38.806Z,8.72
2023-02-02T00:58:05.380Z,8.82
2023-02-02T01:00:31.969Z,8.82
2023-02-02T01:03:04.296Z,8.71
2023-02-02T01:05:32.079Z,8.75
2023-02-02T01:07:58.705Z,8.81
2023-02-02T01:10:25.439Z,8.81
2023-02-02T01:12:52.318Z,8.83
2023-02-02T01:15:19.023Z,8.81
2023-02-02T01:17:45.634Z,8.68
2023-02-02T01:20:20.522Z,8.83
2023-02-02T01:22:47.671Z,8.73
2023-02-02T01:25:14.690Z,8.71
2023-02-02T01:27:43.740Z,8.75
2023-02-02T01:30:11.247Z,8.68
2023-02-02T01:32:37.850Z,8.77
2023-02-02T01:35:04.882Z,8.70
2023-02-02T01:37:33.625Z,8.73
2023-02-02T01:40:01.669Z,8.71
2023-02-02T01:42:28.516Z,8.71
2023-02-02T01:45:04.255Z,8.76
2023-02-02T01:47:36.424Z,8.76
2023-02-02T01:50:04.365Z,8.76
2023-02-02T01:52:34.113Z,8.75
2023-02-02T01:55:08.313Z,8.58
2023-02-02T01:57:42.136Z,8.72
2023-02-02T02:00:14.578Z,8.70
2023-02-02T02:02:48.301Z,8.62
2023-02-02T02:05:24.027Z,8.30
2023-02-02T02:07:53.520Z,8.68
2023-02-02T02:10:20.132Z,8.68
2023-02-02T02:12:48.658Z,8.64
2023-02-02T02:15:33.896Z,8.66
2023-02-02T02:18:09.279Z,8.67
2023-02-02T02:21:42.500Z,8.66
2023-02-02T02:25:02.471Z,8.54
2023-02-02T02:28:12.145Z,8.53
2023-02-02T02:30:44.326Z,8.57
2023-02-02T02:33:39.822Z,8.57
2023-02-02T02:36:15.212Z,8.53
2023-02-02T02:38:51.776Z,8.51
2023-02-02T02:41:25.842Z,8.46
2023-02-02T02:44:01.297Z,8.52
2023-02-02T02:46:28.445Z,8.53
2023-02-02T02:48:58.071Z,8.48
2023-02-02T02:51:43.607Z,8.52
2023-02-02T02:54:21.211Z,8.36
2023-02-02T02:57:06.605Z,8.50
2023-02-02T02:59:41.382Z,8.48
2023-02-02T03:02:38.213Z,8.48
2023-02-02T03:05:31.585Z,8.42
2023-02-02T03:08:16.307Z,8.08
2023-02-02T03:10:45.768Z,8.33
2023-02-02T03:13:14.143Z,8.41
2023-02-02T03:15:42.455Z,8.52
2023-02-02T03:18:09.255Z,8.52
2023-02-02T03:20:36.358Z,8.39
2023-02-02T03:23:06.001Z,8.47
2023-02-02T03:25:34.998Z,8.41
2023-02-02T03:28:01.849Z,8.45
2023-02-02T03:30:28.593Z,8.44
2023-02-02T03:32:55.337Z,8.45
2023-02-02T03:35:22.077Z,8.43
2023-02-02T03:37:51.532Z,8.45
2023-02-02T03:40:18.817Z,8.35
2023-02-02T03:42:45.419Z,8.31
2023-02-02T03:45:12.001Z,8.33
2023-02-02T03:47:38.626Z,8.27
2023-02-02T03:50:06.461Z,8.46
2023-02-02T03:52:32.963Z,8.10
2023-02-02T03:54:59.767Z,8.39
2023-02-02T03:57:26.530Z,8.45
2023-02-02T03:59:53.217Z,8.55
2023-02-02T04:02:21.944Z,8.56
2023-02-02T04:04:51.294Z,8.41
2023-02-02T04:07:17.852Z,8.59
2023-02-02T04:09:46.676Z,8.59
2023-02-02T04:12:15.794Z,8.56
2023-02-02T04:14:44.809Z,8.55
2023-02-02T04:17:11.629Z,8.62
2023-02-02T04:19:38.256Z,8.59
2023-02-02T04:22:04.939Z,8.63
2023-02-02T04:24:31.540Z,8.64
2023-02-02T04:26:58.143Z,8.63
2023-02-02T04:29:27.184Z,8.66
2023-02-02T04:31:54.371Z,8.00
2023-02-02T04:34:21.059Z,8.56
2023-02-02T04:36:47.675Z,8.67
2023-02-02T04:39:14.374Z,8.67
2023-02-02T04:41:40.926Z,8.67
2023-02-02T04:44:14.473Z,8.67
2023-02-02T04:46:41.156Z,8.62
2023-02-02T04:49:10.334Z,8.50
2023-02-02T04:51:40.371Z,8.66
2023-02-02T04:54:07.566Z,8.65
2023-02-02T04:56:34.197Z,8.64
2023-02-02T04:59:00.831Z,8.66
2023-02-02T05:01:27.577Z,8.66
2023-02-02T05:03:54.601Z,8.68
2023-02-02T05:06:21.203Z,8.67
2023-02-02T05:08:49.025Z,8.67
2023-02-02T05:11:18.498Z,8.69
2023-02-02T05:13:49.227Z,8.63
2023-02-02T05:16:15.970Z,8.58
2023-02-02T05:18:43.389Z,8.71
2023-02-02T05:21:12.404Z,8.70
2023-02-02T05:23:41.295Z,8.71
2023-02-02T05:26:18.699Z,8.68
2023-02-02T05:28:45.673Z,8.66
2023-02-02T05:31:12.414Z,8.52
2023-02-02T05:33:41.208Z,8.49
2023-02-02T05:36:08.294Z,8.74
2023-02-02T05:38:35.451Z,8.72
2023-02-02T05:41:04.992Z,8.74
2023-02-02T05:43:32.919Z,8.74
2023-02-02T05:45:59.865Z,8.73
2023-02-02T05:48:26.703Z,8.75
2023-02-02T05:51:05.951Z,8.75
2023-02-02T05:53:33.001Z,8.75
2023-02-02T05:56:01.900Z,8.67
2023-02-02T05:58:28.529Z,8.72
2023-02-02T06:00:56.702Z,8.28
2023-02-02T06:03:23.858Z,8.73
2023-02-02T06:05:50.671Z,8.67
2023-02-02T06:08:19.729Z,8.72
2023-02-02T06:10:46.331Z,8.66
2023-02-02T06:13:15.449Z,8.63
2023-02-02T06:15:43.298Z,8.71
2023-02-02T06:18:10.248Z,8.60
2023-02-02T06:20:37.194Z,8.53
2023-02-02T06:23:04.702Z,8.39
2023-02-02T06:25:31.300Z,8.70
2023-02-02T06:27:59.192Z,8.58
2023-02-02T06:30:28.466Z,8.65
2023-02-02T06:32:55.139Z,8.55
2023-02-02T06:35:21.918Z,8.62
2023-02-02T06:37:49.245Z,8.60
2023-02-02T06:40:16.072Z,8.60
2023-02-02T06:42:44.997Z,8.58
2023-02-02T06:45:11.793Z,8.53
2023-02-02T06:47:38.443Z,8.61
2023-02-02T06:50:05.206Z,8.60
2023-02-02T06:52:31.745Z,8.56
2023-02-02T06:54:58.276Z,8.57
2023-02-02T06:57:24.842Z,8.65
2023-02-02T06:59:52.311Z,8.55
2023-02-02T07:02:19.126Z,8.63
2023-02-02T07:04:46.109Z,8.60
2023-02-02T07:07:12.761Z,8.65
2023-02-02T07:09:41.648Z,8.63
2023-02-02T07:12:10.602Z,8.60
2023-02-02T07:14:37.970Z,8.48
2023-02-02T07:17:04.644Z,8.63
2023-02-02T07:19:33.651Z,8.65
2023-02-02T07:22:00.312Z,8.65
2023-02-02T07:24:27.738Z,8.65
2023-02-02T07:26:54.449Z,8.56
2023-02-02T07:29:21.036Z,8.65
2023-02-02T07:31:47.651Z,8.63
2023-02-02T07:34:14.245Z,8.58
2023-02-02T07:36:40.869Z,8.63
2023-02-02T07:39:07.844Z,8.62
2023-02-02T07:41:36.796Z,8.45
2023-02-02T07:44:04.884Z,8.56
2023-02-02T07:46:31.964Z,8.56
2023-02-02T07:48:58.787Z,8.48
2023-02-02T07:51:25.956Z,8.44
2023-02-02T07:53:54.441Z,8.51
2023-02-02T07:56:24.363Z,8.58
2023-02-02T07:58:57.217Z,8.50
2023-02-02T08:01:26.236Z,8.62
2023-02-02T08:03:54.071Z,8.57
2023-02-02T08:06:29.849Z,8.68
2023-02-02T08:08:59.699Z,8.69
2023-02-02T08:11:27.875Z,8.35
2023-02-02T08:13:57.443Z,8.67
2023-02-02T08:16:25.490Z,8.62
2023-02-02T08:18:57.601Z,8.77
2023-02-02T08:21:24.694Z,8.77
2023-02-02T08:23:53.133Z,8.81
2023-02-02T08:26:22.159Z,8.82
2023-02-02T08:28:52.925Z,8.85
2023-02-02T08:31:25.682Z,8.84
2023-02-02T08:33:54.085Z,8.78
2023-02-02T08:36:22.956Z,8.91
2023-02-02T08:38:50.248Z,8.90
2023-02-02T08:41:19.839Z,8.89
2023-02-02T08:43:46.964Z,8.90
2023-02-02T08:46:17.941Z,8.92
2023-02-02T08:48:45.348Z,8.92
2023-02-02T08:51:18.457Z,8.84
2023-02-02T08:53:46.422Z,8.96
2023-02-02T08:56:21.610Z,8.82
2023-02-02T08:58:55.374Z,8.99
2023-02-02T09:01:28.759Z,8.86
2023-02-02T09:03:59.625Z,9.01
2023-02-02T09:06:32.938Z,9.04
2023-02-02T09:09:00.224Z,8.91
2023-02-02T09:11:29.279Z,9.08
2023-02-02T09:13:58.753Z,9.11
2023-02-02T09:16:26.798Z,9.17
2023-02-02T09:18:54.680Z,9.18
2023-02-02T09:21:21.596Z,9.13
2023-02-02T09:23:49.523Z,9.07
2023-02-02T09:26:28.149Z,9.26
2023-02-02T09:29:02.488Z,9.31
2023-02-02T09:31:31.159Z,9.35
2023-02-02T09:34:04.347Z,9.46
2023-02-02T09:36:31.602Z,9.64
2023-02-02T09:38:58.484Z,9.73
2023-02-02T09:41:37.329Z,9.82
2023-02-02T09:44:19.121Z,9.91
2023-02-02T09:46:50.395Z,9.95
2023-02-02T09:49:38.294Z,9.99
2023-02-02T09:52:16.419Z,9.98
2023-02-02T09:54:48.750Z,9.65
2023-02-02T09:57:20.981Z,9.92
2023-02-02T09:59:50.785Z,9.82
2023-02-02T10:02:40.066Z,9.85
2023-02-02T10:05:13.931Z,9.79
2023-02-02T10:07:45.931Z,9.80
2023-02-02T10:10:18.090Z,9.82
2023-02-02T10:12:49.717Z,9.82
2023-02-02T10:15:38.506Z,9.86
2023-02-02T10:18:06.225Z,9.90
2023-02-02T10:20:46.531Z,9.95
2023-02-02T10:23:29.001Z,9.98
2023-02-02T10:26:01.426Z,10.07
2023-02-02T10:28:56.616Z,10.02
2023-02-02T10:32:00.448Z,10.11
2023-02-02T10:34:39.833Z,10.15
2023-02-02T10:37:12.546Z,10.20
2023-02-02T10:40:06.951Z,10.23
2023-02-02T10:42:38.132Z,10.22
2023-02-02T10:45:20.402Z,10.12
2023-02-02T10:47:47.300Z,10.09
2023-02-02T10:50:13.847Z,10.22
2023-02-02T10:52:55.110Z,10.20
2023-02-02T10:55:46.808Z,10.16
2023-02-02T10:58:13.308Z,10.13
2023-02-02T11:00:43.640Z,9.71
2023-02-02T11:03:12.333Z,10.12
2023-02-02T11:05:57.544Z,10.18
2023-02-02T11:08:40.116Z,10.14
2023-02-02T11:11:22.696Z,9.99
2023-02-02T11:14:03.678Z,10.08
2023-02-02T11:16:42.244Z,10.10
2023-02-02T11:19:30.639Z,10.12
2023-02-02T11:21:59.784Z,10.10
2023-02-02T11:24:36.528Z,10.17
2023-02-02T11:27:15.244Z,10.28
2023-02-02T11:29:59.525Z,10.23
2023-02-02T11:32:28.958Z,10.44
2023-02-02T11:35:07.170Z,10.45
2023-02-02T11:37:36.172Z,10.19
2023-02-02T11:40:30.009Z,10.43
2023-02-02T11:42:59.109Z,10.41
2023-02-02T11:45:45.848Z,10.36
2023-02-02T11:48:27.060Z,10.25
2023-02-02T11:50:56.769Z,10.28
2023-02-02T11:53:31.219Z,10.24
2023-02-02T11:56:07.652Z,10.14
2023-02-02T11:58:43.490Z,10.18
2023-02-02T12:01:22.499Z,10.21
2023-02-02T12:03:49.853Z,9.91
2023-02-02T12:06:28.739Z,10.22
2023-02-02T12:09:02.760Z,10.23
2023-02-02T12:11:40.852Z,10.23
2023-02-02T12:14:31.942Z,10.22
2023-02-02T12:17:06.987Z,10.22
2023-02-02T12:19:50.484Z,10.22
2023-02-02T12:22:32.130Z,10.20
2023-02-02T12:25:28.441Z,10.23
2023-02-02T12:28:03.638Z,10.22
2023-02-02T12:30:55.779Z,10.20
2023-02-02T12:33:52.036Z,10.13
2023-02-02T12:36:35.027Z,9.17
2023-02-02T12:39:07.721Z,10.13
2023-02-02T12:42:12.182Z,10.19
2023-02-02T12:45:06.434Z,10.21
2023-02-02T12:47:44.320Z,10.24
2023-02-02T12:50:49.512Z,10.24
2023-02-02T12:53:38.290Z,10.20
2023-02-02T12:56:13.698Z,10.09
2023-02-02T12:59:00.353Z,10.08
2023-02-02T13:02:01.893Z,10.17
2023-02-02T13:08:02.610Z,9.77
2023-02-02T13:10:42.844Z,10.00
2023-02-02T13:13:14.906Z,10.12
2023-02-02T13:15:48.782Z,9.94
2023-02-02T13:18:27.260Z,9.98
2023-02-02T13:21:07.702Z,9.98
2023-02-02T13:23:40.480Z,9.95
2023-02-02T13:26:15.570Z,9.83
2023-02-02T13:29:05.460Z,9.89
2023-02-02T13:31:42.660Z,9.90
2023-02-02T13:34:23.715Z,9.85
2023-02-02T13:37:01.931Z,9.68
2023-02-02T13:39:42.090Z,9.79
2023-02-02T13:42:22.640Z,9.78
2023-02-02T13:45:07.304Z,9.81
2023-02-02T13:47:45.560Z,9.79
2023-02-02T13:50:19.796Z,9.80
2023-02-02T13:53:05.548Z,9.79
2023-02-02T13:56:09.463Z,9.79
2023-02-02T13:58:51.306Z,9.77
2023-02-02T14:01:19.355Z,9.78
2023-02-02T14:03:56.621Z,9.78
2023-02-02T14:06:26.271Z,9.80
2023-02-02T14:08:55.639Z,9.82
2023-02-02T14:11:32.859Z,9.81
2023-02-02T14:14:33.366Z,9.84
2023-02-02T14:17:28.575Z,9.81
2023-02-02T14:19:57.349Z,9.75
2023-02-02T14:22:42.983Z,9.70
2023-02-02T14:25:33.554Z,9.65
2023-02-02T14:28:02.380Z,9.62
2023-02-02T14:30:38.855Z,9.62
2023-02-02T14:33:20.882Z,9.61
2023-02-02T14:35:47.395Z,9.58
2023-02-02T14:38:36.459Z,9.55
2023-02-02T14:42:00.813Z,9.50
2023-02-02T14:44:31.239Z,9.46
2023-02-02T14:47:02.404Z,9.45
2023-02-02T14:49:35.567Z,9.43
2023-02-02T14:52:05.813Z,9.32
2023-02-02T14:54:38.708Z,9.33
2023-02-02T14:57:22.377Z,9.40
2023-02-02T14:59:50.260Z,9.41
2023-02-02T15:02:34.752Z,9.30
2023-02-02T15:05:39.701Z,9.37
2023-02-02T15:08:26.668Z,9.36
2023-02-02T15:11:25.556Z,9.33
2023-02-02T15:14:06.956Z,8.95
2023-02-02T15:16:37.678Z,9.30
2023-02-02T15:19:18.623Z,9.13
2023-02-02T15:21:49.264Z,9.20
2023-02-02T15:24:21.559Z,9.25
2023-02-02T15:26:54.675Z,9.23
2023-02-02T15:29:47.350Z,9.14
2023-02-02T15:32:18.054Z,9.23
2023-02-02T15:34:49.308Z,9.22
2023-02-02T15:37:20.696Z,9.20
2023-02-02T15:39:52.115Z,9.21
2023-02-02T15:42:46.989Z,9.21
2023-02-02T15:45:38.179Z,9.18
2023-02-02T15:48:18.774Z,9.21
2023-02-02T15:50:47.277Z,9.10
2023-02-02T15:53:20.745Z,9.20
2023-02-02T15:55:47.348Z,9.01
2023-02-02T15:58:34.345Z,9.17
2023-02-02T16:01:07.055Z,9.14
2023-02-02T16:04:15.074Z,9.13
2023-02-02T16:06:43.142Z,9.09
2023-02-02T16:09:28.787Z,9.10
2023-02-02T16:11:55.637Z,9.09
2023-02-02T16:14:23.734Z,8.91
2023-02-02T16:16:52.828Z,9.06
2023-02-02T16:19:27.654Z,8.91
2023-02-02T16:21:58.655Z,8.95
2023-02-02T16:24:29.157Z,9.03
2023-02-02T16:26:59.220Z,9.03
2023-02-02T16:29:29.452Z,8.97
2023-02-02T16:31:56.576Z,8.95
2023-02-02T16:34:41.507Z,9.02
2023-02-02T16:37:22.472Z,9.01
2023-02-02T16:39:49.701Z,8.99
2023-02-02T16:42:23.973Z,9.02
2023-02-02T16:44:50.651Z,9.01
2023-02-02T16:47:30.607Z,9.02
2023-02-02T16:50:02.982Z,9.03
2023-02-02T16:52:29.592Z,9.03
2023-02-02T16:54:57.384Z,8.95
2023-02-02T16:57:30.478Z,9.06
2023-02-02T17:00:01.610Z,8.72
2023-02-02T17:02:38.936Z,8.91
2023-02-02T17:05:05.708Z,9.05
2023-02-02T17:07:36.772Z,9.03
2023-02-02T17:10:14.752Z,9.01
2023-02-02T17:12:41.428Z,8.77
2023-02-02T17:15:17.015Z,9.06
2023-02-02T17:17:45.368Z,9.04
2023-02-02T17:20:13.107Z,9.06
2023-02-02T17:22:43.122Z,9.07
2023-02-02T17:25:25.201Z,9.03
2023-02-02T17:27:53.489Z,9.07
2023-02-02T17:30:20.889Z,9.06
2023-02-02T17:32:47.610Z,8.98
2023-02-02T17:35:21.111Z,9.08
2023-02-02T17:37:48.298Z,9.09
2023-02-02T17:40:16.519Z,9.09
2023-02-02T17:42:51.237Z,9.09
2023-02-02T17:45:23.676Z,8.89
2023-02-02T17:47:51.513Z,9.09
2023-02-02T17:50:18.598Z,9.09
2023-02-02T17:52:46.198Z,9.05
2023-02-02T17:55:20.717Z,9.06
2023-02-02T17:57:53.921Z,9.09
2023-02-02T18:00:23.241Z,9.09
2023-02-02T18:02:52.100Z,8.93
2023-02-02T18:05:19.075Z,9.11
2023-02-02T18:07:47.875Z,9.11
2023-02-02T18:10:19.260Z,9.12
2023-02-02T18:12:45.872Z,9.12
2023-02-02T18:15:14.812Z,9.12
2023-02-02T18:17:44.232Z,9.11
2023-02-02T18:20:15.177Z,9.13
2023-02-02T18:22:47.708Z,9.03
2023-02-02T18:25:15.035Z,9.12
2023-02-02T18:27:41.661Z,9.10
2023-02-02T18:30:08.971Z,9.07
2023-02-02T18:32:39.983Z,8.96
2023-02-02T18:35:10.540Z,9.07
2023-02-02T18:37:37.677Z,9.15
2023-02-02T18:40:07.986Z,8.46
2023-02-02T18:42:36.343Z,9.19
2023-02-02T18:45:04.801Z,9.21
2023-02-02T18:47:31.415Z,9.23
2023-02-02T18:50:00.858Z,9.25
2023-02-02T18:52:31.032Z,9.22
2023-02-02T18:54:57.560Z,9.23
2023-02-02T18:57:24.220Z,9.15
2023-02-02T18:59:52.690Z,9.25
2023-02-02T19:02:19.889Z,9.23
2023-02-02T19:05:04.681Z,9.19
2023-02-02T19:07:50.659Z,9.25
2023-02-02T19:10:18.227Z,9.28
2023-02-02T19:13:02.455Z,9.14
2023-02-02T19:15:31.759Z,9.25
2023-02-02T19:17:58.329Z,9.24
2023-02-02T19:20:27.905Z,9.26
2023-02-02T19:23:06.982Z,9.26
2023-02-02T19:25:33.659Z,9.25
2023-02-02T19:28:09.088Z,9.15
2023-02-02T19:30:35.668Z,9.22
2023-02-02T19:33:02.427Z,9.18
2023-02-02T19:35:29.480Z,9.03
2023-02-02T19:38:01.809Z,8.73
2023-02-02T19:40:28.788Z,9.05
2023-02-02T19:43:10.358Z,8.96
2023-02-02T19:45:37.759Z,9.05
2023-02-02T19:48:35.407Z,9.03
2023-02-02T19:51:27.900Z,8.99
2023-02-02T19:53:59.189Z,8.86
2023-02-02T19:56:36.180Z,8.83
2023-02-02T19:59:02.851Z,8.89
2023-02-02T20:01:34.717Z,8.89
2023-02-02T20:04:04.061Z,8.88
2023-02-02T20:06:38.741Z,8.68
2023-02-02T20:09:18.222Z,8.62
2023-02-02T20:11:47.347Z,8.85
2023-02-02T20:14:18.533Z,8.88
2023-02-02T20:16:51.162Z,8.92
2023-02-02T20:19:21.715Z,8.97
2023-02-02T20:21:52.298Z,8.91
2023-02-02T20:24:40.319Z,8.99
2023-02-02T20:27:25.394Z,9.04
2023-02-02T20:29:54.158Z,9.05
2023-02-02T20:32:29.259Z,9.03
2023-02-02T20:34:59.330Z,9.09
2023-02-02T20:37:32.348Z,9.09
2023-02-02T20:40:03.361Z,9.11
2023-02-02T20:42:30.360Z,9.13
2023-02-02T20:44:58.201Z,9.09
2023-02-02T20:47:25.252Z,9.17
2023-02-02T20:49:54.327Z,9.07
2023-02-02T20:52:24.120Z,9.14
2023-02-02T20:54:51.649Z,9.19
2023-02-02T20:57:18.776Z,9.21
2023-02-02T20:59:45.365Z,9.20
2023-02-02T21:02:19.658Z,9.26
2023-02-02T21:04:47.701Z,9.27
2023-02-02T21:07:19.631Z,9.26
2023-02-02T21:09:48.624Z,9.27
2023-02-02T21:12:16.007Z,9.21
2023-02-02T21:14:44.914Z,9.32
2023-02-02T21:17:15.252Z,9.27
2023-02-02T21:19:45.823Z,9.30
2023-02-02T21:22:15.144Z,9.36
2023-02-02T21:24:42.620Z,9.36
2023-02-02T21:27:10.067Z,9.36
2023-02-02T21:29:36.895Z,9.38
2023-02-02T21:32:04.175Z,9.38
2023-02-02T21:34:31.905Z,9.30
2023-02-02T21:37:01.169Z,9.37
2023-02-02T21:39:32.626Z,8.71
2023-02-02T21:42:08.420Z,9.42
2023-02-02T21:44:49.711Z,9.34
2023-02-02T21:47:45.407Z,9.40
2023-02-02T21:50:16.154Z,9.39
2023-02-02T21:52:43.245Z,9.39
2023-02-02T21:55:33.625Z,8.93
2023-02-02T21:58:11.523Z,9.39
2023-02-02T22:00:38.121Z,9.40
2023-02-02T22:03:24.782Z,9.29
2023-02-02T22:05:53.714Z,9.42
2023-02-02T22:08:26.771Z,9.40
2023-02-02T22:10:53.333Z,9.32
2023-02-02T22:13:24.869Z,9.41
2023-02-02T22:15:53.414Z,9.41
2023-02-02T22:18:26.240Z,9.37
2023-02-02T22:20:56.421Z,9.40
2023-02-02T22:23:28.239Z,9.38
2023-02-02T22:25:57.774Z,9.33
2023-02-02T22:28:27.252Z,9.35
2023-02-02T22:30:59.839Z,9.39
2023-02-02T22:33:26.802Z,9.40
2023-02-02T22:35:55.944Z,9.39
2023-02-02T22:38:24.661Z,9.38
2023-02-02T22:40:54.802Z,9.40
2023-02-02T22:43:21.993Z,9.40
2023-02-02T22:45:49.219Z,9.41
2023-02-02T22:48:16.696Z,9.41
2023-02-02T22:50:43.384Z,9.40
2023-02-02T22:53:15.497Z,9.36
2023-02-02T22:55:43.439Z,9.33
2023-02-02T22:58:12.294Z,9.33
2023-02-02T23:00:38.876Z,9.41
2023-02-02T23:03:05.533Z,9.40
2023-02-02T23:05:32.332Z,9.39
2023-02-02T23:07:58.890Z,9.42
2023-02-02T23:10:27.746Z,9.40
2023-02-02T23:12:56.001Z,9.41
2023-02-02T23:15:22.712Z,9.41
2023-02-02T23:17:49.771Z,9.42
2023-02-02T23:20:17.342Z,9.45
2023-02-02T23:22:44.010Z,9.43
2023-02-02T23:25:12.160Z,9.44
2023-02-02T23:27:39.431Z,9.43
2023-02-02T23:30:07.675Z,9.09
2023-02-02T23:32:34.724Z,9.43
2023-02-02T23:35:01.458Z,9.42
2023-02-02T23:37:30.367Z,9.42
2023-02-02T23:39:56.920Z,9.42
2023-02-02T23:42:23.505Z,9.37
2023-02-02T23:44:50.083Z,9.36
2023-02-02T23:47:16.767Z,9.31
2023-02-02T23:49:44.078Z,9.39
2023-02-02T23:52:10.822Z,9.38
2023-02-02T23:54:37.629Z,9.39
2023-02-02T23:57:04.419Z,9.35
2023-02-02T23:59:30.962Z,9.40
